Time;durP1;ratioP1;P1;durP2;ratioP2;P2;SDS_P1;SDS_P2;PMS_P1;PMS_P2;Temp;Humidity;BMP_temperature;BMP_pressure;BME280_temperature;BME280_humidity;BME280_pressure;Samples;Min_cycle;Max_cycle;Signal;HPM_P1;HPM_P2
2021/01/18 00:00:52;;;;;;;;;;;;;;;-12.99;89.80;100579.32;1824531;79;20188;-39
2021/01/18 00:03:20;;;;;;;;;;;;;;;-13.01;89.69;100578.35;1824324;79;20141;-38
2021/01/18 00:05:47;;;;;;;;;;;;;;;-13.01;89.66;100576.20;1824316;79;20292;-40
2021/01/18 00:08:15;;;;;;;;;;;;;;;-13.02;89.62;100566.50;1824200;79;20160;-40
2021/01/18 00:10:44;;;;;;;;;;;;;;;-13.02;89.59;100559.31;1824226;79;20391;-39
2021/01/18 00:13:12;;;;;;;;;;;;;;;-13.03;89.56;100553.77;1824154;79;20170;-39
2021/01/18 00:15:40;;;;;;;;;;;;;;;-13.05;89.57;100546.45;1824277;79;20165;-40
2021/01/18 00:18:09;;;;;;;;;;;;;;;-13.06;89.56;100557.34;1824167;79;20141;-39
2021/01/18 00:20:38;;;;;;;;;;;;;;;-13.07;89.55;100549.27;1824304;79;20197;-40
2021/01/18 00:23:05;;;;;;;;;;;;;;;-13.09;89.59;100555.46;1824237;79;20160;-39
2021/01/18 00:25:36;;;;;;;;;;;;;;;-13.09;89.65;100567.19;1824196;79;20121;-40
2021/01/18 00:28:04;;;;;;;;;;;;;;;-13.07;89.67;100566.93;1824287;79;20141;-39
2021/01/18 00:30:33;;;;;;;;;;;;;;;-13.07;89.67;100574.12;1824203;79;20117;-39
2021/01/18 00:33:01;;;;;;;;;;;;;;;-13.04;89.69;100562.09;1824318;79;20227;-40
2021/01/18 00:35:29;;;;;;;;;;;;;;;-13.05;89.66;100542.30;1824302;79;20228;-38
2021/01/18 00:37:56;;;;;;;;;;;;;;;-13.05;89.68;100550.24;1824441;79;20181;-39
2021/01/18 00:40:25;;;;;;;;;;;;;;;-13.05;89.69;100550.24;1824160;79;20140;-39
2021/01/18 00:42:53;;;;;;;;;;;;;;;-13.05;89.70;100553.65;1824468;79;20232;-40
2021/01/18 00:45:22;;;;;;;;;;;;;;;-13.05;89.70;100550.24;1824350;79;20249;-38
2021/01/18 00:47:57;;;;;;;;;;;;;;;-13.06;89.67;100548.52;1824325;79;20169;-38
2021/01/18 00:50:28;;;;;;;;;;;;;;;-13.07;89.64;100558.10;1824472;79;20268;-38
2021/01/18 00:52:58;;;;;;;;;;;;;;;-13.08;89.66;100559.74;1824432;79;20184;-39
2021/01/18 00:55:27;;;;;;;;;;;;;;;-13.08;89.63;100540.83;1794566;79;20204;-41
2021/01/18 00:57:56;;;;;;;;;;;;;;;-13.08;89.68;100533.26;1823045;79;20287;-40
2021/01/18 01:00:26;;;;;;;;;;;;;;;-13.09;89.64;100536.55;1794758;79;20125;-38
2021/01/18 01:02:56;;;;;;;;;;;;;;;-13.11;89.60;100529.62;1824446;79;20157;-39
2021/01/18 01:05:27;;;;;;;;;;;;;;;-13.14;89.68;100537.89;1824374;79;20425;-41
2021/01/18 01:07:57;;;;;;;;;;;;;;;-13.16;89.71;100546.98;1824549;79;20149;-38
2021/01/18 01:10:31;;;;;;;;;;;;;;;-13.17;89.70;100540.55;1824136;79;20394;-40
2021/01/18 01:13:06;;;;;;;;;;;;;;;-13.19;89.70;100526.97;1824553;79;20126;-39
2021/01/18 01:15:34;;;;;;;;;;;;;;;-13.20;89.74;100532.78;1824112;79;20136;-39
2021/01/18 01:18:03;;;;;;;;;;;;;;;-13.21;89.79;100524.71;1824186;79;20232;-39
2021/01/18 01:20:31;;;;;;;;;;;;;;;-13.22;89.80;100542.75;1824496;79;20137;-40
2021/01/18 01:22:59;;;;;;;;;;;;;;;-13.22;89.81;100544.39;1824267;79;20137;-39
2021/01/18 01:25:27;;;;;;;;;;;;;;;-13.21;89.85;100551.19;1824108;79;20198;-39
2021/01/18 01:27:56;;;;;;;;;;;;;;;-13.23;89.86;100553.59;1824261;79;20180;-39
2021/01/18 01:30:24;;;;;;;;;;;;;;;-13.23;89.92;100543.50;1824407;79;20134;-41
2021/01/18 01:32:53;;;;;;;;;;;;;;;-13.22;89.89;100545.64;1824277;79;20297;-38
2021/01/18 01:35:24;;;;;;;;;;;;;;;-13.23;89.89;100537.20;1825012;77;20164;-40
2021/01/18 01:37:52;;;;;;;;;;;;;;;-13.24;89.92;100532.92;1829820;78;20297;-39
2021/01/18 01:40:21;;;;;;;;;;;;;;;-13.24;89.94;100525.73;1824295;78;20236;-39
2021/01/18 01:42:49;;;;;;;;;;;;;;;-13.24;89.96;100531.66;1824413;79;20176;-38
2021/01/18 01:45:17;;;;;;;;;;;;;;;-13.23;89.96;100533.42;1824495;79;20192;-39
2021/01/18 01:47:51;;;;;;;;;;;;;;;-13.23;89.96;100530.02;1800877;80;20405;-40
2021/01/18 01:50:24;;;;;;;;;;;;;;;-13.23;89.99;100527.11;1800780;80;20146;-39
2021/01/18 01:52:56;;;;;;;;;;;;;;;-13.22;89.97;100517.91;1800561;80;20444;-39
2021/01/18 01:55:26;;;;;;;;;;;;;;;-13.24;89.97;100525.35;1800552;80;20226;-39
2021/01/18 01:57:54;;;;;;;;;;;;;;;-13.20;89.98;100527.35;1800586;80;20405;-38
2021/01/18 02:00:23;;;;;;;;;;;;;;;-13.20;89.97;100522.31;1800805;80;20289;-39
2021/01/18 02:02:51;;;;;;;;;;;;;;;-13.19;89.90;100529.08;1800644;80;20230;-39
2021/01/18 02:05:19;;;;;;;;;;;;;;;-13.18;89.88;100534.63;1770133;80;20277;-39
2021/01/18 02:07:47;;;;;;;;;;;;;;;-13.14;89.85;100536.63;1800832;80;20408;-39
2021/01/18 02:10:15;;;;;;;;;;;;;;;-13.12;89.79;100531.67;1800727;80;20170;-39
2021/01/18 02:12:43;;;;;;;;;;;;;;;-13.10;89.73;100537.30;1800556;80;20156;-38
2021/01/18 02:15:17;;;;;;;;;;;;;;;-13.11;89.62;100522.05;1800635;80;20401;-39
2021/01/18 02:18:06;;;;;;;;;;;;;;;-13.12;89.54;100531.67;1800547;80;20191;-38
2021/01/18 02:21:05;;;;;;;;;;;;;;;-13.11;89.52;100533.41;1800736;80;20385;-38
2021/01/18 02:27:12;;;;;;;;;;;;;;;-13.07;89.39;100530.36;1915809;74;20460;-39
2021/01/18 02:29:53;;;;;;;;;;;;;;;-13.12;89.35;100537.98;1813331;78;20232;-39
2021/01/18 02:32:36;;;;;;;;;;;;;;;-13.12;89.30;100541.77;1827332;78;20137;-38
2021/01/18 02:35:09;;;;;;;;;;;;;;;-13.12;89.27;100553.95;1870837;75;20298;-39
2021/01/18 02:37:43;;;;;;;;;;;;;;;-13.15;89.23;100547.48;1856542;75;20171;-39
2021/01/18 02:40:23;;;;;;;;;;;;;;;-13.15;89.21;100552.52;1903012;75;20219;-39
2021/01/18 02:42:51;;;;;;;;;;;;;;;-13.16;89.18;100548.23;1902347;75;20124;-38
2021/01/18 02:45:21;;;;;;;;;;;;;;;-13.16;89.18;100555.80;1903064;75;20140;-39
2021/01/18 02:47:49;;;;;;;;;;;;;;;-13.17;89.19;100540.55;1869309;75;20151;-38
2021/01/18 02:50:17;;;;;;;;;;;;;;;-13.18;89.18;100529.58;1903190;75;20262;-39
2021/01/18 02:52:46;;;;;;;;;;;;;;;-13.19;89.22;100532.02;1869367;75;20152;-39
2021/01/18 02:55:16;;;;;;;;;;;;;;;-13.20;89.26;100537.44;1903270;75;20413;-38
2021/01/18 02:57:44;;;;;;;;;;;;;;;-13.17;89.34;100541.43;1903283;75;20133;-38
2021/01/18 03:00:16;;;;;;;;;;;;;;;-13.13;89.41;100547.60;1903268;75;20132;-39
2021/01/18 03:03:04;;;;;;;;;;;;;;;-13.09;89.43;100548.27;1903025;75;20179;-38
2021/01/18 03:05:39;;;;;;;;;;;;;;;-13.06;89.47;100535.91;1902937;75;20144;-38
2021/01/18 03:08:18;;;;;;;;;;;;;;;-13.06;89.47;100540.95;1881493;75;20175;-39
2021/01/18 03:10:58;;;;;;;;;;;;;;;-13.06;89.52;100535.91;1903330;75;20222;-40
2021/01/18 03:13:33;;;;;;;;;;;;;;;-13.05;89.51;100540.16;1903192;75;20369;-39
2021/01/18 03:16:13;;;;;;;;;;;;;;;-13.04;89.51;100537.75;1903142;75;20553;-39
2021/01/18 03:18:43;;;;;;;;;;;;;;;-13.02;89.53;100539.13;1903205;75;20156;-39
2021/01/18 03:21:11;;;;;;;;;;;;;;;-13.00;89.54;100536.34;1903107;75;20128;-38
2021/01/18 03:23:40;;;;;;;;;;;;;;;-13.01;89.53;100539.25;1903166;75;20386;-38
2021/01/18 03:26:08;;;;;;;;;;;;;;;-13.00;89.53;100537.61;1903017;75;20378;-38
2021/01/18 03:28:36;;;;;;;;;;;;;;;-12.98;89.57;100530.62;1903059;75;20187;-40
2021/01/18 03:31:04;;;;;;;;;;;;;;;-12.99;89.51;100525.08;1903170;75;20132;-39
2021/01/18 03:33:31;;;;;;;;;;;;;;;-12.99;89.52;100529.25;1903311;75;20180;-37
2021/01/18 03:35:59;;;;;;;;;;;;;;;-13.00;89.52;100538.49;1902955;75;20234;-39
2021/01/18 03:38:28;;;;;;;;;;;;;;;-13.00;89.55;100541.02;1902692;75;20374;-38
2021/01/18 03:40:56;;;;;;;;;;;;;;;-12.99;89.53;100540.22;1902354;75;20140;-38
2021/01/18 03:43:24;;;;;;;;;;;;;;;-12.98;89.54;100548.67;1902484;75;20147;-39
2021/01/18 03:45:52;;;;;;;;;;;;;;;-12.98;89.52;100553.71;1902325;75;20262;-39
2021/01/18 03:48:20;;;;;;;;;;;;;;;-13.00;89.46;100560.31;1902384;75;20120;-38
2021/01/18 03:50:49;;;;;;;;;;;;;;;-13.00;89.46;100554.01;1902446;75;20160;-38
2021/01/18 03:53:17;;;;;;;;;;;;;;;-13.02;89.44;100549.22;1902409;75;20195;-39
2021/01/18 03:55:48;;;;;;;;;;;;;;;-13.00;89.47;100548.58;1897782;75;20201;-39
2021/01/18 03:58:16;;;;;;;;;;;;;;;-12.98;89.42;100552.45;1867105;77;20198;-39
2021/01/18 04:00:44;;;;;;;;;;;;;;;-12.98;89.44;100557.50;1867159;77;20122;-37
2021/01/18 04:03:12;;;;;;;;;;;;;;;-13.00;89.39;100559.05;1867641;77;20178;-38
2021/01/18 04:05:40;;;;;;;;;;;;;;;-13.03;89.38;100548.34;1867273;77;20225;-40
2021/01/18 04:08:09;;;;;;;;;;;;;;;-13.03;89.39;100560.08;1867241;77;20138;-39
2021/01/18 04:10:37;;;;;;;;;;;;;;;-13.03;89.40;100560.08;1867529;77;20186;-38
2021/01/18 04:13:05;;;;;;;;;;;;;;;-13.07;89.37;100557.72;1867368;77;20217;-38
2021/01/18 04:15:32;;;;;;;;;;;;;;;-13.08;89.39;100553.44;1867297;77;20138;-39
2021/01/18 04:18:01;;;;;;;;;;;;;;;-13.11;89.40;100549.41;1867506;77;20158;-38
2021/01/18 04:20:29;;;;;;;;;;;;;;;-13.12;89.44;100555.63;1867207;77;20241;-39
2021/01/18 04:22:58;;;;;;;;;;;;;;;-13.13;89.48;100569.92;1867237;77;20197;-38
2021/01/18 04:25:27;;;;;;;;;;;;;;;-13.14;89.53;100567.27;1867352;77;20181;-39
2021/01/18 04:27:58;;;;;;;;;;;;;;;-13.11;89.62;100573.38;1867392;77;20261;-39
2021/01/18 04:30:28;;;;;;;;;;;;;;;-13.09;89.64;100590.77;1866915;77;20131;-38
2021/01/18 04:33:03;;;;;;;;;;;;;;;-13.07;89.76;100590.52;1867440;77;20142;-39
2021/01/18 04:35:32;;;;;;;;;;;;;;;-13.04;89.80;100594.89;1867263;77;20150;-40
2021/01/18 04:38:00;;;;;;;;;;;;;;;-13.00;89.82;100594.38;1869096;75;20141;-38
2021/01/18 04:40:29;;;;;;;;;;;;;;;-12.98;89.81;100595.34;1872217;75;20124;-39
2021/01/18 04:42:57;;;;;;;;;;;;;;;-12.97;89.80;100598.36;1878003;75;20266;-39
2021/01/18 04:45:26;;;;;;;;;;;;;;;-12.95;89.80;100606.55;1867370;75;20172;-38
2021/01/18 04:47:54;;;;;;;;;;;;;;;-12.94;89.71;100619.67;1867418;75;20131;-38
2021/01/18 04:50:24;;;;;;;;;;;;;;;-12.99;89.63;100621.33;1867220;77;20150;-39
2021/01/18 04:52:53;;;;;;;;;;;;;;;-13.00;89.66;100622.12;1871153;75;20260;-39
2021/01/18 04:55:45;;;;;;;;;;;;;;;-12.98;89.69;100631.53;1902191;75;20148;-39
2021/01/18 04:58:18;;;;;;;;;;;;;;;-12.97;89.71;100638.34;1867180;77;20190;-39
2021/01/18 05:00:51;;;;;;;;;;;;;;;-12.91;89.72;100648.01;1867180;77;20174;-40
2021/01/18 05:03:21;;;;;;;;;;;;;;;-12.88;89.68;100643.59;1868816;75;20152;-39
2021/01/18 05:06:08;;;;;;;;;;;;;;;-12.89;89.64;100647.75;1867180;77;20149;-40
2021/01/18 05:08:51;;;;;;;;;;;;;;;-12.87;89.61;100649.13;1867214;77;20287;-39
2021/01/18 05:11:19;;;;;;;;;;;;;;;-12.86;89.62;100651.75;1870708;75;20134;-38
2021/01/18 05:13:47;;;;;;;;;;;;;;;-12.83;89.59;100654.89;1866945;75;20289;-40
2021/01/18 05:16:15;;;;;;;;;;;;;;;-12.82;89.51;100656.66;1867757;75;20169;-41
2021/01/18 05:18:43;;;;;;;;;;;;;;;-12.85;89.39;100655.16;1867412;75;20459;-39
2021/01/18 05:21:11;;;;;;;;;;;;;;;-12.89;89.29;100650.27;1866973;76;20114;-39
2021/01/18 05:23:42;;;;;;;;;;;;;;;-12.92;89.23;100651.29;1867179;77;20152;-40
2021/01/18 05:26:20;;;;;;;;;;;;;;;-12.93;89.21;100653.34;1867872;75;20225;-39
2021/01/18 05:28:49;;;;;;;;;;;;;;;-12.92;89.17;100660.13;1867009;77;20170;-38
2021/01/18 05:31:32;;;;;;;;;;;;;;;-12.91;89.13;100656.84;1867499;77;20193;-39
2021/01/18 05:34:03;;;;;;;;;;;;;;;-12.89;89.12;100665.41;1867075;75;20398;-40
2021/01/18 05:36:37;;;;;;;;;;;;;;;-12.90;89.06;100664.91;1866037;77;20152;-39
2021/01/18 05:39:19;;;;;;;;;;;;;;;-12.86;88.98;100669.83;1888726;75;20191;-40
2021/01/18 05:41:50;;;;;;;;;;;;;;;-12.85;88.93;100669.03;1853105;75;20291;-40
2021/01/18 05:44:18;;;;;;;;;;;;;;;-12.83;88.87;100672.17;1868533;75;20123;-40
2021/01/18 05:46:48;;;;;;;;;;;;;;;-12.81;88.78;100676.09;1868641;75;20286;-42
2021/01/18 05:49:19;;;;;;;;;;;;;;;-12.81;88.62;100678.23;1870826;75;20446;-46
2021/01/18 05:51:53;;;;;;;;;;;;;;;-12.80;88.51;100674.06;1872391;75;20213;-38
2021/01/18 05:54:22;;;;;;;;;;;;;;;-12.78;88.43;100675.91;1869842;75;20193;-48
2021/01/18 05:56:54;;;;;;;;;;;;;;;-12.73;88.38;100673.34;1867090;75;20208;-47
2021/01/18 05:59:23;;;;;;;;;;;;;;;-12.67;88.36;100678.88;1871326;75;20859;-39
2021/01/18 06:01:53;;;;;;;;;;;;;;;-12.61;88.26;100675.92;1870608;75;20206;-40
2021/01/18 06:04:23;;;;;;;;;;;;;;;-12.61;88.13;100673.39;1875644;75;20180;-41
2021/01/18 06:06:55;;;;;;;;;;;;;;;-12.63;87.98;100671.13;1849176;75;20201;-41
2021/01/18 06:09:24;;;;;;;;;;;;;;;-12.65;87.87;100674.80;1896256;75;20171;-41
2021/01/18 06:11:51;;;;;;;;;;;;;;;-12.69;87.77;100669.42;1869142;75;20443;-43
2021/01/18 06:14:19;;;;;;;;;;;;;;;-12.69;87.71;100672.83;1878571;75;20420;-40
2021/01/18 06:16:50;;;;;;;;;;;;;;;-12.64;87.74;100671.52;1874290;75;20127;-40
2021/01/18 06:19:22;;;;;;;;;;;;;;;-12.56;87.74;100672.97;1866444;77;20580;-40
2021/01/18 06:21:50;;;;;;;;;;;;;;;-12.48;87.66;100684.02;1867372;75;20182;-39
2021/01/18 06:26:51;;;;;;;;;;;;;;;-12.53;87.29;100676.96;1896111;74;20273;-41
2021/01/18 06:29:42;;;;;;;;;;;;;;;-12.54;87.25;100679.02;1848531;75;20378;-40
2021/01/18 06:32:13;;;;;;;;;;;;;;;-12.50;87.19;100667.48;1880052;75;20197;-42
2021/01/18 06:34:43;;;;;;;;;;;;;;;-12.37;87.20;100660.41;1874099;75;20279;-46
2021/01/18 06:37:20;;;;;;;;;;;;;;;-12.32;87.04;100655.30;1868023;75;20205;-41
2021/01/18 06:39:52;;;;;;;;;;;;;;;-12.29;86.90;100658.06;1869045;75;20304;-41
2021/01/18 06:42:21;;;;;;;;;;;;;;;-12.27;86.80;100654.87;1867872;75;20188;-40
2021/01/18 06:44:49;;;;;;;;;;;;;;;-12.19;86.77;100647.84;1867341;75;20391;-40
2021/01/18 06:47:31;;;;;;;;;;;;;;;-12.09;86.66;100643.08;1846681;75;20136;-42
2021/01/18 06:50:04;;;;;;;;;;;;;;;-11.99;86.61;100643.83;1870994;75;20323;-47
2021/01/18 06:52:33;;;;;;;;;;;;;;;-11.89;86.42;100655.11;1867960;75;20172;-42
2021/01/18 06:55:10;;;;;;;;;;;;;;;-11.81;86.12;100647.65;1867741;75;20184;-40
2021/01/18 06:58:03;;;;;;;;;;;;;;;-11.77;85.70;100651.29;1870631;75;20203;-41
2021/01/18 07:00:31;;;;;;;;;;;;;;;-11.74;85.36;100640.11;1874660;75;20304;-42
2021/01/18 07:03:02;;;;;;;;;;;;;;;-11.71;84.97;100644.10;1867596;77;20154;-41
2021/01/18 07:05:46;;;;;;;;;;;;;;;-11.75;84.59;100641.77;1869565;75;20263;-42
2021/01/18 07:08:18;;;;;;;;;;;;;;;-11.73;84.36;100648.16;1871676;75;20270;-42
2021/01/18 07:10:49;;;;;;;;;;;;;;;-11.68;84.14;100645.56;1868890;75;20160;-42
2021/01/18 07:13:18;;;;;;;;;;;;;;;-11.55;83.88;100648.59;1872205;75;20188;-42
2021/01/18 07:15:50;;;;;;;;;;;;;;;-11.39;83.60;100648.86;1878182;75;20471;-41
2021/01/18 07:18:18;;;;;;;;;;;;;;;-11.26;83.24;100645.52;1832097;77;20157;-41
2021/01/18 07:20:47;;;;;;;;;;;;;;;-11.13;82.82;100648.98;1830450;77;20189;-42
2021/01/18 07:23:26;;;;;;;;;;;;;;;-11.08;82.15;100637.90;1798502;78;20200;-43
2021/01/18 07:26:19;;;;;;;;;;;;;;;-11.14;81.63;100647.61;1773013;80;20235;-42
2021/01/18 07:28:52;;;;;;;;;;;;;;;-11.03;81.37;100650.50;1824170;77;20158;-40
2021/01/18 07:31:22;;;;;;;;;;;;;;;-10.87;80.89;100654.53;1834654;77;20164;-43
2021/01/18 07:33:52;;;;;;;;;;;;;;;-10.68;80.65;100657.52;1829463;77;20574;-43
2021/01/18 07:36:25;;;;;;;;;;;;;;;-10.43;80.26;100660.41;1812568;77;20293;-43
2021/01/18 07:38:53;;;;;;;;;;;;;;;-10.23;79.83;100662.55;1836829;77;20422;-42
2021/01/18 07:41:29;;;;;;;;;;;;;;;-10.10;79.05;100660.00;1837298;77;20133;-42
2021/01/18 07:43:50;;;;;;;;;;;;;;;-9.97;78.61;100666.73;1831466;77;20172;-41
2021/01/18 07:46:30;;;;;;;;;;;;;;;-9.78;78.02;100673.48;1832891;77;20195;-42
2021/01/18 07:49:16;;;;;;;;;;;;;;;-9.82;77.23;100672.78;1832936;77;20564;-42
2021/01/18 07:51:44;;;;;;;;;;;;;;;-9.94;76.57;100670.74;1837624;77;20308;-43
2021/01/18 07:54:33;;;;;;;;;;;;;;;-10.11;75.98;100678.55;1838730;77;20199;-42
2021/01/18 07:57:29;;;;;;;;;;;;;;;-10.12;76.12;100686.92;1836638;77;20196;-42
2021/01/18 08:00:26;;;;;;;;;;;;;;;-9.96;76.22;100683.70;1823189;77;20245;-41
2021/01/18 08:03:12;;;;;;;;;;;;;;;-9.56;76.20;100685.83;1836981;77;20137;-43
2021/01/18 08:05:43;;;;;;;;;;;;;;;-9.21;75.90;100688.02;1839269;77;20193;-42
2021/01/18 08:08:16;;;;;;;;;;;;;;;-9.19;75.15;100691.16;1828692;77;20372;-43
2021/01/18 08:10:57;;;;;;;;;;;;;;;-9.14;74.61;100701.19;1835925;77;20132;-43
2021/01/18 08:13:34;;;;;;;;;;;;;;;-8.97;74.39;100704.73;1835800;77;20127;-48
2021/01/18 08:16:28;;;;;;;;;;;;;;;-8.67;73.68;100707.87;1834434;77;20188;-42
2021/01/18 08:19:14;;;;;;;;;;;;;;;-9.01;72.20;100707.89;1832862;77;20481;-42
2021/01/18 08:21:45;;;;;;;;;;;;;;;-9.22;72.28;100708.72;1837354;77;20452;-42
2021/01/18 08:24:18;;;;;;;;;;;;;;;-8.99;72.47;100717.75;1836401;77;20124;-43
2021/01/18 08:27:05;;;;;;;;;;;;;;;-8.94;71.69;100711.28;1855994;77;20221;-43
2021/01/18 08:29:45;;;;;;;;;;;;;;;-9.47;70.99;100719.02;1838194;77;20378;-42
2021/01/18 08:32:30;;;;;;;;;;;;;;;-9.87;71.13;100719.41;1843718;77;20394;-42
2021/01/18 08:35:00;;;;;;;;;;;;;;;-10.01;71.40;100723.09;1835273;77;20492;-43
2021/01/18 08:37:29;;;;;;;;;;;;;;;-9.83;72.27;100721.73;1832514;77;20125;-43
2021/01/18 08:40:10;;;;;;;;;;;;;;;-9.52;72.60;100712.78;1834052;77;20201;-43
2021/01/18 08:42:40;;;;;;;;;;;;;;;-9.19;72.36;100720.73;1797726;77;20215;-44
2021/01/18 08:45:23;;;;;;;;;;;;;;;-9.05;71.78;100718.63;1822611;77;20177;-42
2021/01/18 08:47:56;;;;;;;;;;;;;;;-8.72;71.98;100729.55;1778395;77;20270;-42
2021/01/18 08:50:39;;;;;;;;;;;;;;;-8.52;71.35;100721.45;1837505;77;20202;-43
2021/01/18 08:53:29;;;;;;;;;;;;;;;-8.32;71.41;100713.73;1787029;77;20302;-43
2021/01/18 08:56:23;;;;;;;;;;;;;;;-8.12;70.72;100714.84;1825240;77;20136;-43
2021/01/18 08:58:53;;;;;;;;;;;;;;;-7.79;70.28;100708.25;1835190;77;20381;-44
2021/01/18 09:01:30;;;;;;;;;;;;;;;-7.52;69.75;100698.33;1817142;77;20184;-44
2021/01/18 09:04:06;;;;;;;;;;;;;;;-7.38;69.08;100698.70;1837914;77;20140;-42
2021/01/18 09:06:34;;;;;;;;;;;;;;;-7.31;68.49;100698.63;1845589;77;20269;-44
2021/01/18 09:09:08;;;;;;;;;;;;;;;-7.09;68.15;100695.18;1839666;77;20512;-42
2021/01/18 09:11:37;;;;;;;;;;;;;;;-6.76;67.87;100690.09;1835807;77;20192;-43
2021/01/18 09:14:05;;;;;;;;;;;;;;;-6.45;66.98;100687.04;1834985;77;20247;-42
2021/01/18 09:16:33;;;;;;;;;;;;;;;-6.36;65.85;100678.55;1834247;77;20412;-43
2021/01/18 09:19:08;;;;;;;;;;;;;;;-6.47;65.13;100678.42;1833276;77;20339;-43
2021/01/18 09:21:36;;;;;;;;;;;;;;;-6.49;64.29;100668.53;1814564;78;20244;-44
2021/01/18 09:24:11;;;;;;;;;;;;;;;-6.86;63.69;100665.40;1809136;78;20184;-43
2021/01/18 09:26:39;;;;;;;;;;;;;;;-7.44;63.72;100661.45;1819153;77;20200;-43
2021/01/18 09:29:08;;;;;;;;;;;;;;;-8.01;63.89;100658.25;1830552;77;20170;-42
2021/01/18 09:31:37;;;;;;;;;;;;;;;-8.42;64.27;100654.27;1799233;78;20418;-42
2021/01/18 09:34:11;;;;;;;;;;;;;;;-8.82;64.92;100650.18;1830030;77;20200;-43
2021/01/18 09:36:43;;;;;;;;;;;;;;;-9.12;65.57;100651.78;1833914;77;20189;-43
2021/01/18 09:39:20;;;;;;;;;;;;;;;-9.28;66.29;100649.58;1833454;77;20174;-43
2021/01/18 09:41:51;;;;;;;;;;;;;;;-9.17;67.02;100646.41;1812400;77;20200;-42
2021/01/18 09:44:21;;;;;;;;;;;;;;;-9.05;67.30;100647.52;1830809;77;20183;-43
2021/01/18 09:46:56;;;;;;;;;;;;;;;-8.98;67.60;100648.38;1830110;77;20235;-43
2021/01/18 09:49:25;;;;;;;;;;;;;;;-8.85;67.65;100643.23;1809412;77;20186;-43
2021/01/18 09:51:54;;;;;;;;;;;;;;;-8.83;67.40;100640.41;1832195;77;20141;-43
2021/01/18 09:54:22;;;;;;;;;;;;;;;-8.80;67.61;100648.22;1831909;77;20220;-42
2021/01/18 09:56:50;;;;;;;;;;;;;;;-8.66;67.77;100643.53;1833937;77;20531;-42
2021/01/18 09:59:18;;;;;;;;;;;;;;;-8.60;67.69;100651.94;1839894;77;20319;-43
2021/01/18 10:01:48;;;;;;;;;;;;;;;-8.52;67.82;100650.69;1830767;77;20176;-45
2021/01/18 10:04:22;;;;;;;;;;;;;;;-8.36;67.79;100643.56;1837504;77;20216;-42
2021/01/18 10:06:50;;;;;;;;;;;;;;;-8.23;67.53;100633.27;1813068;78;20298;-42
2021/01/18 10:09:20;;;;;;;;;;;;;;;-8.11;67.27;100631.41;1818190;77;20230;-43
2021/01/18 10:11:49;;;;;;;;;;;;;;;-8.04;67.00;100627.15;1808590;78;20135;-43
2021/01/18 10:14:22;;;;;;;;;;;;;;;-7.92;66.94;100623.13;1829604;77;20216;-43
2021/01/18 10:17:02;;;;;;;;;;;;;;;-7.84;66.71;100627.86;1839448;77;20291;-44
2021/01/18 10:19:31;;;;;;;;;;;;;;;-7.91;66.34;100633.40;1831785;77;20246;-51
2021/01/18 10:22:00;;;;;;;;;;;;;;;-8.04;66.09;100638.59;1832522;77;20517;-43
2021/01/18 10:26:49;;;;;;;;;;;;;;;-8.07;66.18;100632.05;1900943;74;20233;-42
2021/01/18 10:29:23;;;;;;;;;;;;;;;-8.15;65.94;100626.95;1854396;75;20301;-44
2021/01/18 10:31:52;;;;;;;;;;;;;;;-8.37;65.80;100624.02;1873096;75;20264;-42
2021/01/18 10:34:27;;;;;;;;;;;;;;;-8.48;65.81;100633.58;1808724;75;20458;-42
2021/01/18 10:36:57;;;;;;;;;;;;;;;-8.53;66.12;100634.95;1867180;75;20194;-43
2021/01/18 10:39:28;;;;;;;;;;;;;;;-8.43;66.41;100627.48;1870530;75;20480;-43
2021/01/18 10:42:04;;;;;;;;;;;;;;;-8.51;66.05;100628.30;1871647;75;20501;-43
2021/01/18 10:44:33;;;;;;;;;;;;;;;-8.71;66.31;100633.50;1868295;75;20193;-44
2021/01/18 10:47:00;;;;;;;;;;;;;;;-8.76;66.72;100632.75;1871437;75;20215;-43
2021/01/18 10:49:31;;;;;;;;;;;;;;;-8.65;67.06;100636.79;1872499;75;20195;-42
2021/01/18 10:52:01;;;;;;;;;;;;;;;-8.29;67.36;100637.62;1875937;75;20264;-43
2021/01/18 10:54:30;;;;;;;;;;;;;;;-7.93;67.28;100631.55;1830025;75;20254;-43
2021/01/18 10:56:59;;;;;;;;;;;;;;;-7.73;66.71;100626.77;1845548;75;20189;-43
2021/01/18 10:59:28;;;;;;;;;;;;;;;-7.63;66.40;100613.28;1871320;75;20191;-43
2021/01/18 11:02:08;;;;;;;;;;;;;;;-7.58;66.01;100602.95;1872432;75;20252;-46
2021/01/18 11:04:45;;;;;;;;;;;;;;;-7.49;65.66;100594.54;1861417;75;20449;-43
2021/01/18 11:07:13;;;;;;;;;;;;;;;-7.54;65.23;100589.58;1876391;75;20122;-42
2021/01/18 11:09:41;;;;;;;;;;;;;;;-7.63;65.03;100595.47;1867384;75;20181;-42
2021/01/18 11:12:10;;;;;;;;;;;;;;;-7.61;65.01;100604.07;1875349;75;20588;-43
2021/01/18 11:14:38;;;;;;;;;;;;;;;-7.64;64.73;100592.05;1871630;75;20222;-42
2021/01/18 11:17:07;;;;;;;;;;;;;;;-7.82;64.67;100586.85;1881529;75;20225;-44
2021/01/18 11:19:35;;;;;;;;;;;;;;;-8.12;64.74;100572.44;1866897;75;20505;-43
2021/01/18 11:22:04;;;;;;;;;;;;;;;-8.22;65.25;100576.55;1871520;75;20252;-42
2021/01/18 11:24:33;;;;;;;;;;;;;;;-8.21;65.26;100573.22;1871598;75;20194;-43
2021/01/18 11:27:01;;;;;;;;;;;;;;;-8.56;65.14;100572.14;1869430;75;20280;-44
2021/01/18 11:29:31;;;;;;;;;;;;;;;-8.86;65.40;100589.45;1822538;75;20182;-43
2021/01/18 11:32:01;;;;;;;;;;;;;;;-8.87;66.28;100591.11;1845687;75;20334;-42
2021/01/18 11:34:30;;;;;;;;;;;;;;;-8.70;66.53;100597.55;1848543;75;20223;-43
2021/01/18 11:37:06;;;;;;;;;;;;;;;-8.51;66.77;100586.37;1872111;75;20404;-43
2021/01/18 11:39:34;;;;;;;;;;;;;;;-8.20;67.02;100588.92;1869770;75;20196;-41
2021/01/18 11:42:02;;;;;;;;;;;;;;;-7.97;66.91;100579.64;1874325;75;20205;-42
2021/01/18 11:44:30;;;;;;;;;;;;;;;-7.83;66.72;100572.37;1871342;75;20180;-41
2021/01/18 11:46:59;;;;;;;;;;;;;;;-7.89;66.00;100564.41;1866197;75;20140;-42
2021/01/18 11:49:27;;;;;;;;;;;;;;;-8.15;65.64;100563.39;1873264;75;20184;-41
2021/01/18 11:51:55;;;;;;;;;;;;;;;-8.28;65.99;100557.14;1868513;75;20182;-43
2021/01/18 11:54:25;;;;;;;;;;;;;;;-8.26;66.41;100561.50;1874169;75;20284;-43
2021/01/18 11:56:52;;;;;;;;;;;;;;;-8.12;66.60;100558.45;1869262;75;20166;-42
2021/01/18 11:59:21;;;;;;;;;;;;;;;-8.07;66.24;100560.84;1866744;75;20187;-43
2021/01/18 12:01:49;;;;;;;;;;;;;;;-8.11;66.24;100575.47;1868832;75;20464;-43
2021/01/18 12:04:17;;;;;;;;;;;;;;;-8.11;66.29;100580.16;1875723;75;20274;-43
2021/01/18 12:06:46;;;;;;;;;;;;;;;-8.16;66.39;100594.30;1860285;75;20273;-43
2021/01/18 12:09:14;;;;;;;;;;;;;;;-8.22;66.44;100601.97;1869814;75;20284;-42
2021/01/18 12:11:44;;;;;;;;;;;;;;;-8.29;66.60;100604.96;1874286;75;20480;-43
2021/01/18 12:14:35;;;;;;;;;;;;;;;-8.42;66.65;100612.32;1870293;75;20183;-43
2021/01/18 12:17:05;;;;;;;;;;;;;;;-8.56;66.91;100617.89;1867848;75;20131;-43
2021/01/18 12:19:36;;;;;;;;;;;;;;;-8.70;67.11;100625.09;1834770;75;20191;-43
2021/01/18 12:22:05;;;;;;;;;;;;;;;-8.86;67.42;100625.85;1830545;75;20173;-42
2021/01/18 12:24:34;;;;;;;;;;;;;;;-8.91;67.90;100626.38;1854631;76;20252;-42
2021/01/18 12:27:03;;;;;;;;;;;;;;;-8.88;68.28;100618.95;1868703;75;20175;-43
2021/01/18 12:29:31;;;;;;;;;;;;;;;-8.85;68.34;100625.46;1870039;75;20415;-42
2021/01/18 12:32:00;;;;;;;;;;;;;;;-8.91;68.48;100633.60;1869047;75;20138;-43
2021/01/18 12:34:28;;;;;;;;;;;;;;;-8.95;68.71;100640.56;1871799;75;20188;-43
2021/01/18 12:36:56;;;;;;;;;;;;;;;-9.03;68.76;100640.89;1870565;75;20244;-43
2021/01/18 12:39:25;;;;;;;;;;;;;;;-9.14;68.87;100654.22;1870011;75;20206;-43
2021/01/18 12:41:54;;;;;;;;;;;;;;;-9.27;68.95;100660.61;1874899;75;20217;-43
2021/01/18 12:44:24;;;;;;;;;;;;;;;-9.45;69.00;100664.56;1858275;75;20527;-43
2021/01/18 12:47:06;;;;;;;;;;;;;;;-9.62;69.27;100675.30;1870689;75;20307;-42
2021/01/18 12:49:34;;;;;;;;;;;;;;;-9.73;69.67;100677.17;1874847;75;20285;-43
2021/01/18 12:52:04;;;;;;;;;;;;;;;-9.80;70.15;100685.18;1874371;75;20225;-46
2021/01/18 12:54:31;;;;;;;;;;;;;;;-9.87;70.43;100702.05;1875141;75;20471;-43
2021/01/18 12:56:59;;;;;;;;;;;;;;;-10.06;70.38;100705.06;1867300;75;20283;-43
2021/01/18 12:59:28;;;;;;;;;;;;;;;-10.32;70.31;100703.41;1868386;75;20233;-44
2021/01/18 13:01:58;;;;;;;;;;;;;;;-10.54;70.46;100707.81;1808982;75;20174;-43